Autonomia — CUXX — position and weather

sailwx.info

Track history (hours):
 
Tides and Currents Weather Stations Pressure Air Temp Water Temp Dewpoint Dewpoint Depression Visibility Wind Speed Wind Dir Waves Ship Positions

Autonomia

Last reported at 2017-Aug-16 12:48 UTC. Time now 2017-Aug-17 15:35 UTC.
Position N 32°44' W 016°44'.

Length 27 m; draft 19 m.

Type: Ship. MMSI: 255500118.

Date/timePositionNaut miles runAvg speedWind from/ knotsBaromVisibWave heightAir tempDewpointWater temp
2017-Aug-16 12:48N 32°44' W 016°44'0 0.0
2017-Aug-16 10:24N 32°44' W 016°44'0 0.1
2017-Aug-16 09:50N 32°44' W 016°44'  
2017-Aug-14 01:59N 30°43' W 016°29'10 8.9
2017-Aug-14 00:54N 30°36' W 016°22'4 8.9
2017-Aug-14 00:29N 30°33' W 016°19'4 8.8
2017-Aug-14 00:00N 30°30' W 016°15'5 8.8
2017-Aug-13 23:27N 30°26' W 016°12'11 8.7
2017-Aug-13 22:13N 30°18' W 016°04'5 8.8
2017-Aug-13 21:42N 30°15' W 016°00'3 9.0
2017-Aug-13 21:24N 30°13' W 015°58'7 4.6
2017-Aug-13 19:55N 30°08' W 015°52'0 0.0
2017-Aug-13 19:26N 30°08' W 015°52'0 0.0
2017-Aug-13 18:57N 30°08' W 015°52'1 0.7
2017-Aug-13 17:32N 30°08' W 015°54'12 2.0
2017-Aug-13 11:25N 29°59' W 016°03'4 8.8
2017-Aug-13 11:00N 30°02' W 016°01'2 3.6
2017-Aug-13 10:30N 30°04' W 016°01'0 0.1
2017-Aug-13 09:30N 30°04' W 016°02'0 0.2
2017-Aug-13 08:58N 30°04' W 016°01'0 0.7
2017-Aug-13 08:30N 30°04' W 016°01'1 1.0
2017-Aug-13 07:58N 30°04' W 016°01'1 1.7
2017-Aug-13 07:14N 30°04' W 015°60'3 9.6
2017-Aug-13 06:53N 30°06' W 015°57'4 1.8
2017-Aug-13 04:34N 30°08' W 015°52'0 0.1
2017-Aug-13 04:29N 30°08' W 015°52'0 0.0
2017-Aug-13 02:42N 30°08' W 015°52'0 0.0
2017-Aug-13 02:28N 30°08' W 015°52'0 0.0
2017-Aug-13 01:59N 30°08' W 015°52'0 0.4
2017-Aug-13 00:59N 30°07' W 015°52'0 0.5
2017-Aug-13 00:30N 30°07' W 015°52'0 0.6
2017-Aug-13 00:00N 30°08' W 015°52'0 0.6
2017-Aug-12 23:30N 30°08' W 015°52'0 0.1
2017-Aug-12 23:00N 30°08' W 015°52'0 0.0
2017-Aug-12 22:30N 30°08' W 015°52'0 0.0
2017-Aug-12 22:00N 30°08' W 015°52'0 0.0
2017-Aug-12 21:30N 30°08' W 015°52'0 0.0
2017-Aug-12 20:59N 30°08' W 015°52'0 0.0
2017-Aug-12 20:30N 30°08' W 015°52'8 1.9
2017-Aug-12 16:28N 30°08' W 016°01'4 9.3
2017-Aug-12 16:00N 30°12' W 015°58'6 8.9
2017-Aug-12 15:19N 30°15' W 015°53'18 1.9
2017-Aug-12 06:04N 30°04' W 016°09'1 7.6
2017-Aug-12 05:56N 30°05' W 016°09'10 8.9
2017-Aug-12 04:48N 30°14' W 016°14'3 9.0
2017-Aug-12 04:28N 30°17' W 016°15'4 9.0
2017-Aug-12 04:00N 30°21' W 016°16'8 8.9
2017-Aug-12 03:06N 30°29' W 016°19'14 8.7
2017-Aug-12 01:27N 30°42' W 016°25'4 8.5
2017-Aug-12 01:00N 30°46' W 016°26'5 8.3
2017-Aug-12 00:27N 30°50' W 016°28'4 8.2
2017-Aug-12 00:00N 30°53' W 016°30'4 8.3
2017-Aug-11 23:30N 30°57' W 016°31'7 8.4
2017-Aug-11 22:39N 31°04' W 016°35'2 8.4
2017-Aug-11 22:28N 31°05' W 016°36'5 8.4
2017-Aug-11 21:55N 31°10' W 016°38'12 8.5
2017-Aug-11 20:33N 31°20' W 016°43'1 8.5
2017-Aug-11 20:28N 31°21' W 016°43'15 8.3
2017-Aug-11 18:42N 31°34' W 016°50'2 8.0
2017-Aug-11 18:26N 31°36' W 016°51'3 8.1
2017-Aug-11 18:00N 31°40' W 016°52'7 8.3
2017-Aug-11 17:11N 31°46' W 016°55'2 8.5
2017-Aug-11 17:00N 31°48' W 016°56'5 8.4
2017-Aug-11 16:27N 31°52' W 016°57'4 8.6
2017-Aug-11 15:59N 31°56' W 016°59'4 8.7
2017-Aug-11 15:30N 31°60' W 017°00'4 8.7
2017-Aug-11 15:00N 32°04' W 017°02'35 8.1
2017-Aug-11 10:41N 32°39' W 017°07'2 4.6
2017-Aug-11 10:16N 32°41' W 017°06'0 0.1
2017-Aug-11 09:58N 32°41' W 017°06'4 0.9
2017-Aug-11 05:00N 32°43' W 017°11'0 0.0
2017-Aug-10 23:39N 32°43' W 017°11'0 0.0
2017-Aug-10 23:30N 32°43' W 017°11'0 0.1
2017-Aug-10 22:38N 32°43' W 017°11'0 0.0
2017-Aug-10 22:27N 32°43' W 017°11'0 0.1
2017-Aug-10 21:55N 32°43' W 017°11'0 0.1
2017-Aug-10 21:30N 32°43' W 017°11'0 0.1
2017-Aug-10 19:32N 32°43' W 017°11'0 0.4
2017-Aug-10 19:30N 32°43' W 017°11'0 0.2
2017-Aug-10 18:58N 32°43' W 017°11'0 0.2
2017-Aug-10 18:30N 32°43' W 017°10'0 0.2
2017-Aug-10 18:00N 32°43' W 017°10'0 0.0
2017-Aug-10 17:30N 32°43' W 017°10'0 0.0
2017-Aug-10 17:00N 32°43' W 017°10'0 0.0
2017-Aug-10 16:30N 32°43' W 017°10'0 0.0
2017-Aug-10 16:00N 32°43' W 017°10'0 0.0
2017-Aug-10 15:30N 32°43' W 017°10'0 0.0
2017-Aug-10 14:50N 32°43' W 017°10'4 2.8
2017-Aug-10 13:36N 32°41' W 017°07'0 1.3
2017-Aug-10 13:29N 32°41' W 017°07'4 4.2
2017-Aug-10 12:37N 32°43' W 017°11'0 0.1
2017-Aug-10 12:25N 32°43' W 017°11'0 0.3
2017-Aug-10 11:53N 32°43' W 017°11'0 0.2
2017-Aug-10 11:30N 32°43' W 017°11'22 0.7
2017-Aug-09 01:50N 32°44' W 016°44'7 0.6
2017-Aug-08 13:34N 32°39' W 016°49'21 5.4
2017-Aug-08 09:42N 32°34' W 017°14'1 1.1
2017-Aug-08 09:01N 32°34' W 017°13'0 1.3
2017-Aug-08 08:39N 32°35' W 017°13'0 1.2
2017-Aug-08 08:28N 32°35' W 017°13'1 1.3
2017-Aug-08 07:50N 32°36' W 017°14'2 1.7
2017-Aug-08 06:37N 32°37' W 017°16'0 1.1
2017-Aug-08 06:30N 32°37' W 017°16'0 0.7
2017-Aug-08 06:00N 32°37' W 017°17'5 1.2
2017-Aug-08 02:20N 32°32' W 017°18'3 1.6
2017-Aug-08 00:45N 32°30' W 017°19'6 0.4
2017-Aug-07 10:31N 32°35' W 017°15'0 1.8
2017-Aug-07 10:29N 32°35' W 017°15'2 1.6
2017-Aug-07 09:34N 32°35' W 017°13'0 1.4
2017-Aug-07 09:24N 32°35' W 017°13'5 0.3
2017-Aug-06 19:12N 32°32' W 017°08'0 2.2
2017-Aug-06 19:00N 32°32' W 017°08'2 2.2
2017-Aug-06 18:17N 32°31' W 017°07'1 2.8
2017-Aug-06 18:00N 32°30' W 017°07'0 0.5
2017-Aug-06 17:28N 32°29' W 017°07'  
Track history (hours):
 
Tides and Currents Weather Stations Pressure Air Temp Water Temp Dewpoint Dewpoint Depression Visibility Wind Speed Wind Dir Waves Ship Positions

Autonomia

Last reported at 2017-Aug-16 12:48 UTC. Time now 2017-Aug-17 15:35 UTC.
Position N 32°44' W 016°44'.

Length 27 m; draft 19 m.

Type: Ship. MMSI: 255500118.

Date/timePositionNaut miles runAvg speedWind from/ knotsBaromVisibWave heightAir tempDewpointWater temp
2017-Aug-16 12:48N 32°44' W 016°44'0 0.0
2017-Aug-16 10:24N 32°44' W 016°44'0 0.1
2017-Aug-16 09:50N 32°44' W 016°44'  
2017-Aug-14 01:59N 30°43' W 016°29'10 8.9
2017-Aug-14 00:54N 30°36' W 016°22'4 8.9
2017-Aug-14 00:29N 30°33' W 016°19'4 8.8
2017-Aug-14 00:00N 30°30' W 016°15'5 8.8
2017-Aug-13 23:27N 30°26' W 016°12'11 8.7
2017-Aug-13 22:13N 30°18' W 016°04'5 8.8
2017-Aug-13 21:42N 30°15' W 016°00'3 9.0
2017-Aug-13 21:24N 30°13' W 015°58'7 4.6
2017-Aug-13 19:55N 30°08' W 015°52'0 0.0
2017-Aug-13 19:26N 30°08' W 015°52'0 0.0
2017-Aug-13 18:57N 30°08' W 015°52'1 0.7
2017-Aug-13 17:32N 30°08' W 015°54'12 2.0
2017-Aug-13 11:25N 29°59' W 016°03'4 8.8
2017-Aug-13 11:00N 30°02' W 016°01'2 3.6
2017-Aug-13 10:30N 30°04' W 016°01'0 0.1
2017-Aug-13 09:30N 30°04' W 016°02'0 0.2
2017-Aug-13 08:58N 30°04' W 016°01'0 0.7
2017-Aug-13 08:30N 30°04' W 016°01'1 1.0
2017-Aug-13 07:58N 30°04' W 016°01'1 1.7
2017-Aug-13 07:14N 30°04' W 015°60'3 9.6
2017-Aug-13 06:53N 30°06' W 015°57'4 1.8
2017-Aug-13 04:34N 30°08' W 015°52'0 0.1
2017-Aug-13 04:29N 30°08' W 015°52'0 0.0
2017-Aug-13 02:42N 30°08' W 015°52'0 0.0
2017-Aug-13 02:28N 30°08' W 015°52'0 0.0
2017-Aug-13 01:59N 30°08' W 015°52'0 0.4
2017-Aug-13 00:59N 30°07' W 015°52'0 0.5
2017-Aug-13 00:30N 30°07' W 015°52'0 0.6
2017-Aug-13 00:00N 30°08' W 015°52'0 0.6
2017-Aug-12 23:30N 30°08' W 015°52'0 0.1
2017-Aug-12 23:00N 30°08' W 015°52'0 0.0
2017-Aug-12 22:30N 30°08' W 015°52'0 0.0
2017-Aug-12 22:00N 30°08' W 015°52'0 0.0
2017-Aug-12 21:30N 30°08' W 015°52'0 0.0
2017-Aug-12 20:59N 30°08' W 015°52'0 0.0
2017-Aug-12 20:30N 30°08' W 015°52'8 1.9
2017-Aug-12 16:28N 30°08' W 016°01'4 9.3
2017-Aug-12 16:00N 30°12' W 015°58'6 8.9
2017-Aug-12 15:19N 30°15' W 015°53'18 1.9
2017-Aug-12 06:04N 30°04' W 016°09'1 7.6
2017-Aug-12 05:56N 30°05' W 016°09'10 8.9
2017-Aug-12 04:48N 30°14' W 016°14'3 9.0
2017-Aug-12 04:28N 30°17' W 016°15'4 9.0
2017-Aug-12 04:00N 30°21' W 016°16'8 8.9
2017-Aug-12 03:06N 30°29' W 016°19'14 8.7
2017-Aug-12 01:27N 30°42' W 016°25'4 8.5
2017-Aug-12 01:00N 30°46' W 016°26'5 8.3
2017-Aug-12 00:27N 30°50' W 016°28'4 8.2
2017-Aug-12 00:00N 30°53' W 016°30'4 8.3
2017-Aug-11 23:30N 30°57' W 016°31'7 8.4
2017-Aug-11 22:39N 31°04' W 016°35'2 8.4
2017-Aug-11 22:28N 31°05' W 016°36'5 8.4
2017-Aug-11 21:55N 31°10' W 016°38'12 8.5
2017-Aug-11 20:33N 31°20' W 016°43'1 8.5
2017-Aug-11 20:28N 31°21' W 016°43'15 8.3
2017-Aug-11 18:42N 31°34' W 016°50'2 8.0
2017-Aug-11 18:26N 31°36' W 016°51'3 8.1
2017-Aug-11 18:00N 31°40' W 016°52'7 8.3
2017-Aug-11 17:11N 31°46' W 016°55'2 8.5
2017-Aug-11 17:00N 31°48' W 016°56'5 8.4
2017-Aug-11 16:27N 31°52' W 016°57'4 8.6
2017-Aug-11 15:59N 31°56' W 016°59'4 8.7
2017-Aug-11 15:30N 31°60' W 017°00'4 8.7
2017-Aug-11 15:00N 32°04' W 017°02'35 8.1
2017-Aug-11 10:41N 32°39' W 017°07'2 4.6
2017-Aug-11 10:16N 32°41' W 017°06'0 0.1
2017-Aug-11 09:58N 32°41' W 017°06'4 0.9
2017-Aug-11 05:00N 32°43' W 017°11'0 0.0
2017-Aug-10 23:39N 32°43' W 017°11'0 0.0
2017-Aug-10 23:30N 32°43' W 017°11'0 0.1
2017-Aug-10 22:38N 32°43' W 017°11'0 0.0
2017-Aug-10 22:27N 32°43' W 017°11'0 0.1
2017-Aug-10 21:55N 32°43' W 017°11'0 0.1
2017-Aug-10 21:30N 32°43' W 017°11'0 0.1
2017-Aug-10 19:32N 32°43' W 017°11'0 0.4
2017-Aug-10 19:30N 32°43' W 017°11'0 0.2
2017-Aug-10 18:58N 32°43' W 017°11'0 0.2
2017-Aug-10 18:30N 32°43' W 017°10'0 0.2
2017-Aug-10 18:00N 32°43' W 017°10'0 0.0
2017-Aug-10 17:30N 32°43' W 017°10'0 0.0
2017-Aug-10 17:00N 32°43' W 017°10'0 0.0
2017-Aug-10 16:30N 32°43' W 017°10'0 0.0
2017-Aug-10 16:00N 32°43' W 017°10'0 0.0
2017-Aug-10 15:30N 32°43' W 017°10'0 0.0
2017-Aug-10 14:50N 32°43' W 017°10'4 2.8
2017-Aug-10 13:36N 32°41' W 017°07'0 1.3
2017-Aug-10 13:29N 32°41' W 017°07'4 4.2
2017-Aug-10 12:37N 32°43' W 017°11'0 0.1
2017-Aug-10 12:25N 32°43' W 017°11'0 0.3
2017-Aug-10 11:53N 32°43' W 017°11'0 0.2
2017-Aug-10 11:30N 32°43' W 017°11'22 0.7
2017-Aug-09 01:50N 32°44' W 016°44'7 0.6
2017-Aug-08 13:34N 32°39' W 016°49'21 5.4
2017-Aug-08 09:42N 32°34' W 017°14'1 1.1
2017-Aug-08 09:01N 32°34' W 017°13'0 1.3
2017-Aug-08 08:39N 32°35' W 017°13'0 1.2
2017-Aug-08 08:28N 32°35' W 017°13'1 1.3
2017-Aug-08 07:50N 32°36' W 017°14'2 1.7
2017-Aug-08 06:37N 32°37' W 017°16'0 1.1
2017-Aug-08 06:30N 32°37' W 017°16'0 0.7
2017-Aug-08 06:00N 32°37' W 017°17'5 1.2
2017-Aug-08 02:20N 32°32' W 017°18'3 1.6
2017-Aug-08 00:45N 32°30' W 017°19'6 0.4
2017-Aug-07 10:31N 32°35' W 017°15'0 1.8
2017-Aug-07 10:29N 32°35' W 017°15'2 1.6
2017-Aug-07 09:34N 32°35' W 017°13'0 1.4
2017-Aug-07 09:24N 32°35' W 017°13'5 0.3
2017-Aug-06 19:12N 32°32' W 017°08'0 2.2
2017-Aug-06 19:00N 32°32' W 017°08'2 2.2
2017-Aug-06 18:17N 32°31' W 017°07'1 2.8
2017-Aug-06 18:00N 32°30' W 017°07'0 0.5
2017-Aug-06 17:28N 32°29' W 017°07'  

Dump ship's entire track history